Terminal Aerodrome Forecast
Issued by NWS Twin Cities, MN

Home | Current Version | Previous Version | Text Only | Print | Product List | Glossary Off
Versions: 1 2 3 4 5 6 7 8 9 10 11 12 13 14 15 16 17 18 19 20 21 22 23 24 25 26 27 28 29

127
FTUS43 KMPX 160659 AAA
TAFMSP
TAF AMD
KMSP 160659Z 1607/1712 32009KT P6SM OVC015
     FM161200 VRB04KT P6SM BKN015
     FM161600 12005KT P6SM BKN040
     FM161900 14008KT P6SM BKN070
     FM170600 15010G18KT P6SM BKN130=

USA.gov is the U.S. government's official web portal to all federal, state and local government web resources and services.